< Typhoon 198930 1989 Season Typhoon 198932 >
Typhoon 198931 (IRMA)
General InformationTrack Information on Google MapsDetailed Wind InformationList of All Images || Disaster Info.ResourceGoogle EarthGE AnimationAtom FeedGeoJSON
Detalied Best Track (Time Zone = UTC)
Year Month Day Hour Lat. Long. Pressure (hPa) Wind (kt) Class Image Chart
1989 11 20 18 19.0 169.0 1000 0 2 Image Chart
1989 11 21 00 19.0 167.5 1000 0 2 Image Chart
1989 11 21 06 19.0 165.8 1000 0 2 Image Chart
1989 11 21 12 19.7 164.3 1000 0 2 Image Chart
1989 11 21 18 20.0 163.0 1000 0 2 Image Chart
1989 11 22 00 20.0 162.0 1000 0 2 Image Chart
1989 11 22 06 19.5 161.5 1002 0 2 Image Chart
1989 11 22 12 19.0 161.0 1002 0 2 Image Chart
1989 11 22 18 18.5 160.5 1002 0 2 Image Chart
1989 11 23 00 18.0 160.0 1004 0 2 Image Chart
1989 11 23 06 17.7 159.0 1004 0 2 Image Chart
1989 11 23 12 17.0 158.0 1004 0 2 Image Chart
1989 11 23 18 16.5 157.0 1004 0 2 Image Chart
1989 11 24 00 16.0 156.0 1004 0 2 Image Chart
1989 11 24 06 15.0 155.0 1004 0 2 Image Chart
1989 11 24 12 14.0 153.3 1004 0 2 Image Chart
1989 11 24 18 14.0 152.2 1002 0 2 Image Chart
1989 11 25 00 14.0 151.0 1002 0 2 Image Chart
1989 11 25 06 13.0 150.0 1002 0 2 Image Chart
1989 11 25 12 12.5 148.8 1002 0 2 Image Chart
1989 11 25 18 11.8 147.8 1002 0 2 Image Chart
1989 11 26 00 11.0 147.0 1002 0 2 Image Chart
1989 11 26 06 10.8 146.3 1002 0 2 Image Chart
1989 11 26 12 10.7 145.6 1002 0 2 Image Chart
1989 11 26 18 10.5 144.7 998 35 3 Image Chart
1989 11 27 00 10.2 144.2 994 40 3 Image Chart
1989 11 27 06 10.0 143.7 990 45 3 Image Chart
1989 11 27 12 9.9 143.2 985 50 4 Image Chart
1989 11 27 18 10.0 142.6 980 55 4 Image Chart
1989 11 28 00 10.0 141.9 975 60 4 Image Chart
1989 11 28 06 10.4 141.1 970 65 5 Image Chart
1989 11 28 12 10.7 140.1 965 70 5 Image Chart
1989 11 28 18 11.4 139.0 955 75 5 Image Chart
1989 11 29 00 12.0 137.9 945 85 5 Image Chart
1989 11 29 06 12.5 136.9 935 90 5 Image Chart
1989 11 29 12 12.6 135.7 930 90 5 Image Chart
1989 11 29 18 12.9 135.1 930 90 5 Image Chart
1989 11 30 00 13.2 134.4 925 95 5 Image Chart
1989 11 30 06 13.6 133.4 925 95 5 Image Chart
1989 11 30 12 13.9 132.7 925 95 5 Image Chart
1989 11 30 18 14.1 132.3 935 90 5 Image Chart
1989 12 1 00 14.3 131.8 940 85 5 Image Chart
1989 12 1 06 14.6 131.4 945 85 5 Image Chart
1989 12 1 12 14.8 131.1 950 80 5 Image Chart
1989 12 1 18 15.1 130.8 955 75 5 Image Chart
1989 12 2 00 15.4 130.7 950 80 5 Image Chart
1989 12 2 06 15.7 130.5 940 85 5 Image Chart
1989 12 2 12 16.2 130.7 945 85 5 Image Chart
1989 12 2 18 16.7 131.1 950 80 5 Image Chart
1989 12 3 00 17.2 131.7 955 75 5 Image Chart
1989 12 3 06 17.7 132.3 965 70 5 Image Chart
1989 12 3 12 18.5 133.0 970 65 5 Image Chart
1989 12 3 18 19.5 134.0 975 60 4 Image Chart
1989 12 4 00 20.4 135.6 980 55 4 Image Chart
1989 12 4 06 20.5 137.0 992 45 3 Image Chart
1989 12 4 12 20.0 138.5 1000 0 2 Image Chart
1989 12 4 18 20.0 140.0 1004 0 2 Image Chart
Japan Meteorological Agency Best Track Data | Correction Date : 1992-10-21
< Typhoon 198930 1989 Season Typhoon 198932 >

Help